Time;durP1;ratioP1;P1;durP2;ratioP2;P2;SDS_P1;SDS_P2;PMS_P1;PMS_P2;Temp;Humidity;BMP_temperature;BMP_pressure;BME280_temperature;BME280_humidity;BME280_pressure;Samples;Min_cycle;Max_cycle;Signal;HPM_P1;HPM_P2
2021/05/24 00:01:47;;;;;;;9.73;4.75;;;;;;;14.50;56.85;99447.62;1703725;84;21149;-62
2021/05/24 00:04:14;;;;;;;9.98;4.90;;;;;;;14.53;57.05;99446.45;1711997;83;21132;-62
2021/05/24 00:06:42;;;;;;;13.50;5.08;;;;;;;14.55;56.98;99446.16;1702598;83;21960;-62
2021/05/24 00:09:08;;;;;;;11.90;4.65;;;;;;;14.57;57.34;99454.88;1709143;83;21131;-62
2021/05/24 00:11:36;;;;;;;8.85;5.05;;;;;;;14.58;57.84;99464.72;1701399;83;21111;-62
2021/05/24 00:14:06;;;;;;;14.13;5.30;;;;;;;14.57;57.27;99473.48;1697614;83;21140;-62
2021/05/24 00:16:31;;;;;;;14.95;4.95;;;;;;;14.54;57.69;99495.20;1707162;83;21148;-62
2021/05/24 00:18:58;;;;;;;;;;;;;;;14.49;58.42;99509.01;1713624;83;21021;-62
2021/05/24 00:21:25;;;;;;;9.98;5.47;;;;;;;14.42;59.02;99517.05;1722027;83;20168;-62
2021/05/24 00:23:52;;;;;;;11.95;5.15;;;;;;;14.33;59.05;99530.34;1700671;83;21072;-62
2021/05/24 00:26:20;;;;;;;10.50;5.03;;;;;;;14.43;59.01;99535.11;1706126;83;21089;-62
2021/05/24 00:28:47;;;;;;;12.47;4.97;;;;;;;14.49;58.73;99544.61;1705164;83;21583;-62
2021/05/24 00:31:15;;;;;;;11.93;4.65;;;;;;;14.45;58.12;99546.56;1720927;83;21057;-62
2021/05/24 00:33:42;;;;;;;9.48;5.30;;;;;;;14.47;58.50;99560.52;1719913;83;21068;-62
2021/05/24 00:36:09;;;;;;;12.93;5.20;;;;;;;14.45;58.79;99556.14;1694678;83;21076;-62
2021/05/24 00:38:35;;;;;;;;;;;;;;;14.44;59.11;99560.57;1676405;84;21060;-62
2021/05/24 00:41:01;;;;;;;10.55;4.78;;;;;;;14.42;59.35;99559.49;1711068;83;20135;-62
2021/05/24 00:43:28;;;;;;;9.73;4.65;;;;;;;14.31;60.09;99572.28;1696916;83;21107;-62
2021/05/24 00:45:54;;;;;;;;;;;;;;;14.26;61.99;99566.33;1682513;83;21056;-63
2021/05/24 00:48:20;;;;;;;3.35;0.88;;;;;;;14.25;65.20;99577.56;1714024;83;20186;-61
2021/05/24 00:50:48;;;;;;;4.05;1.30;;;;;;;14.12;51.69;99578.34;1651152;86;21104;-61
2021/05/24 00:53:14;;;;;;;;;;;;;;;14.45;53.17;99577.27;1698134;83;21104;-61
2021/05/24 00:55:41;;;;;;;9.30;3.95;;;;;;;14.67;57.90;99593.02;1712790;83;20183;-61
2021/05/24 00:58:07;;;;;;;;;;;;;;;14.56;60.69;99600.60;1702771;83;21052;-61
2021/05/24 01:00:42;;;;;;;5.87;3.15;;;;;;;14.44;59.71;99603.84;1722097;83;20171;-60
2021/05/24 01:03:11;;;;;;;4.67;2.35;;;;;;;14.27;59.64;99605.48;1720350;83;21515;-61
2021/05/24 01:05:38;;;;;;;7.12;2.42;;;;;;;14.24;57.78;99600.02;1706213;83;21236;-61
2021/05/24 01:08:07;;;;;;;5.10;2.42;;;;;;;14.33;58.13;99602.35;1700169;84;21101;-60
2021/05/24 01:10:34;;;;;;;6.10;2.45;;;;;;;14.38;61.13;99609.12;1706155;84;21120;-60
2021/05/24 01:13:00;;;;;;;;;;;;;;;14.40;61.11;99617.88;1711118;84;21100;-60
2021/05/24 01:15:28;;;;;;;7.87;3.17;;;;;;;14.44;61.43;99619.45;1695667;84;20159;-59
2021/05/24 01:17:55;;;;;;;5.97;3.10;;;;;;;14.30;62.01;99614.45;1703873;84;21124;-60
2021/05/24 01:20:26;;;;;;;6.90;3.30;;;;;;;14.22;62.44;99620.61;1681315;84;21104;-61
2021/05/24 01:25:38;;;;;;;7.17;2.98;;;;;;;14.12;64.55;99622.14;1697100;84;21540;-60
2021/05/24 01:28:06;;;;;;;4.72;2.40;;;;;;;14.06;66.25;99626.89;1692455;84;21134;-61
2021/05/24 01:30:32;;;;;;;5.90;2.90;;;;;;;13.97;67.97;99631.39;1691104;84;21060;-61
2021/05/24 01:32:59;;;;;;;5.62;3.10;;;;;;;13.80;69.70;99628.36;1633414;87;21139;-60
2021/05/24 01:35:26;;;;;;;10.03;3.55;;;;;;;13.56;71.21;99628.98;1706740;84;21022;-60
2021/05/24 01:37:52;;;;;;;7.78;3.15;;;;;;;13.44;72.35;99628.84;1706619;84;21113;-60
2021/05/24 01:40:20;;;;;;;8.73;3.08;;;;;;;13.35;72.92;99630.61;1708989;84;21101;-60
2021/05/24 01:42:47;;;;;;;4.15;2.47;;;;;;;13.25;73.89;99634.02;1695897;84;21643;-60
2021/05/24 01:45:15;;;;;;;5.25;2.77;;;;;;;13.07;74.52;99634.74;1680533;85;21132;-60
2021/05/24 01:47:44;;;;;;;5.45;2.85;;;;;;;12.98;75.14;99631.82;1687941;84;21121;-60
2021/05/24 01:50:12;;;;;;;5.47;2.87;;;;;;;12.95;75.48;99631.86;1703348;84;21060;-60
2021/05/24 01:52:41;;;;;;;5.92;2.80;;;;;;;12.88;75.99;99634.12;1682843;84;21514;-60
2021/05/24 01:55:09;;;;;;;7.53;2.95;;;;;;;12.71;76.53;99628.28;1681679;84;21647;-60
2021/05/24 01:57:37;;;;;;;5.85;2.35;;;;;;;12.58;77.06;99624.84;1634240;87;21160;-60
2021/05/24 02:00:12;;;;;;;5.75;2.30;;;;;;;12.57;77.47;99629.24;1682051;84;21116;-61
2021/05/24 02:02:41;;;;;;;6.53;2.27;;;;;;;12.53;77.98;99621.36;1666820;85;21114;-60
2021/05/24 02:05:09;;;;;;;4.80;2.12;;;;;;;12.47;78.44;99625.48;1696725;83;21124;-60
2021/05/24 02:07:36;;;;;;;5.33;2.00;;;;;;;12.43;78.72;99620.33;1694023;83;21169;-60
2021/05/24 02:10:05;;;;;;;;;;;;;;;12.39;78.94;99621.21;1722080;83;21531;-61
2021/05/24 02:12:33;;;;;;;5.75;1.77;;;;;;;12.28;79.40;99623.21;1703768;82;20523;-60
2021/05/24 02:14:59;;;;;;;3.37;1.60;;;;;;;12.17;79.73;99625.75;1693757;83;21476;-60
2021/05/24 02:17:26;;;;;;;3.62;1.45;;;;;;;12.14;79.95;99625.51;1692705;83;21109;-60
2021/05/24 02:19:53;;;;;;;3.67;1.50;;;;;;;12.12;80.23;99625.78;1628214;86;21643;-60
2021/05/24 02:22:20;;;;;;;4.03;1.90;;;;;;;12.10;80.39;99629.36;1701520;83;21100;-61
2021/05/24 02:24:46;;;;;;;;;;;;;;;12.11;80.45;99629.63;1701212;83;21084;-61
2021/05/24 02:27:12;;;;;;;6.40;3.15;;;;;;;12.12;80.56;99632.59;1697750;83;20159;-61
2021/05/24 02:29:40;;;;;;;8.48;3.22;;;;;;;12.08;80.45;99632.90;1722879;83;20993;-61
2021/05/24 02:32:07;;;;;;;5.40;3.20;;;;;;;12.06;80.51;99635.11;1694761;83;21662;-61
2021/05/24 02:34:33;;;;;;;6.85;3.42;;;;;;;12.06;80.40;99628.83;1676217;83;21167;-61
2021/05/24 02:37:00;;;;;;;7.67;3.90;;;;;;;12.10;79.98;99632.08;1701877;83;21104;-61
2021/05/24 02:39:26;;;;;;;6.12;3.95;;;;;;;12.13;79.83;99634.78;1695776;83;21555;-61
2021/05/24 02:41:52;;;;;;;7.87;4.20;;;;;;;12.16;79.80;99631.48;1714196;83;21128;-61
2021/05/24 02:44:19;;;;;;;;;;;;;;;12.17;79.39;99632.58;1722976;83;21033;-62
2021/05/24 02:46:45;;;;;;;7.00;3.83;;;;;;;12.17;79.32;99631.20;1715267;83;20512;-63
2021/05/24 02:49:11;;;;;;;6.40;3.92;;;;;;;12.12;79.10;99633.14;1716808;83;21032;-62
2021/05/24 02:51:38;;;;;;;6.67;3.72;;;;;;;12.13;79.32;99640.23;1713693;83;21627;-62
2021/05/24 02:54:05;;;;;;;;;;;;;;;12.15;79.32;99643.52;1709982;83;21064;-62
2021/05/24 02:56:33;;;;;;;6.97;3.75;;;;;;;12.17;79.48;99645.40;1712160;83;20204;-62
2021/05/24 02:58:59;;;;;;;8.83;3.98;;;;;;;12.13;79.76;99646.52;1708284;83;21579;-64
2021/05/24 03:01:27;;;;;;;8.03;3.80;;;;;;;12.10;80.02;99647.09;1707695;83;21093;-62
2021/05/24 03:03:56;;;;;;;6.35;4.28;;;;;;;12.09;80.27;99644.09;1700051;83;21024;-62
2021/05/24 03:06:23;;;;;;;7.62;3.92;;;;;;;12.08;80.12;99652.57;1706936;83;21077;-62
2021/05/24 03:08:51;;;;;;;10.58;3.75;;;;;;;12.07;80.33;99655.03;1685384;84;21080;-63
2021/05/24 03:11:18;;;;;;;10.63;5.35;;;;;;;12.07;80.38;99652.30;1684908;84;21061;-63
2021/05/24 03:13:44;;;;;;;9.00;4.20;;;;;;;12.07;80.50;99655.84;1687915;84;21045;-63
2021/05/24 03:16:11;;;;;;;7.65;3.90;;;;;;;12.08;80.60;99654.72;1700563;84;21602;-63
2021/05/24 03:18:37;;;;;;;;;;;;;;;12.12;80.74;99659.06;1696543;84;21068;-63
2021/05/24 03:21:05;;;;;;;9.75;3.75;;;;;;;12.08;80.76;99655.30;1700500;83;20184;-62
2021/05/24 03:23:31;;;;;;;7.35;3.83;;;;;;;12.01;81.20;99666.50;1699464;84;21021;-63
2021/05/24 03:25:57;;;;;;;8.50;4.00;;;;;;;12.02;81.35;99663.23;1694279;84;21080;-62
2021/05/24 03:28:24;;;;;;;7.20;3.70;;;;;;;12.02;81.45;99661.33;1678624;84;21157;-62
2021/05/24 03:30:50;;;;;;;7.37;4.03;;;;;;;12.03;81.35;99658.05;1707225;82;21101;-62
2021/05/24 03:33:17;;;;;;;;;;;;;;;12.03;81.38;99662.96;1690939;84;21105;-62
2021/05/24 03:35:43;;;;;;;7.28;3.40;;;;;;;12.06;81.20;99665.66;1690567;84;20500;-62
2021/05/24 03:38:10;;;;;;;9.35;3.17;;;;;;;12.03;81.15;99664.88;1705994;84;21148;-63
2021/05/24 03:40:36;;;;;;;8.18;3.20;;;;;;;12.02;81.20;99662.69;1700513;84;21654;-62
2021/05/24 03:43:03;;;;;;;9.20;3.45;;;;;;;12.01;81.23;99667.87;1684174;84;21069;-62
2021/05/24 03:45:32;;;;;;;7.50;2.85;;;;;;;12.01;81.47;99669.80;1692325;84;21124;-61
2021/05/24 03:47:58;;;;;;;6.35;3.15;;;;;;;12.04;81.39;99671.97;1683516;84;21109;-61
2021/05/24 03:50:25;;;;;;;5.72;3.35;;;;;;;12.05;81.44;99673.03;1706083;82;21049;-62
2021/05/24 03:52:52;;;;;;;7.60;3.50;;;;;;;12.01;81.66;99674.69;1695239;84;21141;-62
2021/05/24 03:55:18;;;;;;;5.50;3.08;;;;;;;12.02;81.83;99679.05;1694498;84;21100;-61
2021/05/24 03:57:47;;;;;;;;;;;;;;;12.02;81.78;99676.33;1634505;88;21176;-61
2021/05/24 04:00:15;;;;;;;6.85;3.33;;;;;;;12.00;81.84;99669.53;1642499;87;20169;-61
2021/05/24 04:02:42;;;;;;;7.30;3.15;;;;;;;11.94;82.01;99676.91;1652742;86;21176;-61
2021/05/24 04:05:21;;;;;;;6.08;3.08;;;;;;;11.97;82.14;99677.74;1677053;84;21575;-62
2021/05/24 04:07:51;;;;;;;9.58;3.37;;;;;;;12.00;82.11;99679.08;1677348;84;21122;-63
2021/05/24 04:10:16;;;;;;;5.58;3.30;;;;;;;11.98;82.23;99684.27;1658472;84;21041;-62
2021/05/24 04:12:44;;;;;;;8.98;2.67;;;;;;;11.94;82.35;99681.83;1701813;84;21080;-62
2021/05/24 04:15:14;;;;;;;6.47;3.22;;;;;;;11.93;82.48;99683.48;1712010;84;21089;-62
2021/05/24 04:17:41;;;;;;;5.20;2.98;;;;;;;11.93;82.45;99683.48;1711367;84;21100;-61
2021/05/24 04:20:11;;;;;;;5.67;3.22;;;;;;;11.92;82.43;99682.67;1692860;84;21037;-61
2021/05/24 04:22:40;;;;;;;5.17;2.95;;;;;;;11.92;82.48;99676.39;1639043;84;21741;-61
2021/05/24 04:25:08;;;;;;;5.65;2.87;;;;;;;11.92;82.45;99681.30;1699034;84;21082;-61
2021/05/24 04:27:35;;;;;;;7.60;3.17;;;;;;;11.93;82.41;99688.95;1697382;84;21060;-61
2021/05/24 04:30:01;;;;;;;5.22;2.80;;;;;;;11.92;82.37;99695.48;1702110;84;21592;-62
2021/05/24 04:32:28;;;;;;;6.28;3.65;;;;;;;11.90;82.64;99691.66;1676399;84;21093;-62
2021/05/24 04:34:55;;;;;;;10.03;3.87;;;;;;;11.86;82.70;99696.63;1683640;85;21076;-63
2021/05/24 04:37:21;;;;;;;6.22;4.10;;;;;;;11.85;83.06;99701.26;1700457;84;21571;-62
2021/05/24 04:39:49;;;;;;;6.87;3.70;;;;;;;11.88;83.06;99703.96;1690807;84;21108;-63
2021/05/24 04:42:15;;;;;;;6.45;4.03;;;;;;;11.89;83.17;99698.78;1653755;86;21144;-62
2021/05/24 04:44:42;;;;;;;6.42;4.15;;;;;;;11.90;83.26;99711.34;1673633;84;21051;-63
2021/05/24 04:47:09;;;;;;;7.47;3.62;;;;;;;11.87;83.37;99712.69;1665674;86;21143;-61
2021/05/24 04:49:36;;;;;;;5.60;3.45;;;;;;;11.87;83.46;99717.33;1667034;86;21635;-62
2021/05/24 04:52:03;;;;;;;5.30;3.95;;;;;;;11.86;83.45;99717.90;1667600;84;21081;-62
2021/05/24 04:54:29;;;;;;;5.92;3.27;;;;;;;11.85;83.37;99720.89;1667078;86;20989;-62
2021/05/24 04:56:56;;;;;;;4.80;3.15;;;;;;;11.83;83.59;99721.16;1678723;84;21065;-62
2021/05/24 04:59:22;;;;;;;5.42;3.60;;;;;;;11.81;83.49;99731.55;1670462;84;21053;-63
2021/05/24 05:01:49;;;;;;;6.53;3.20;;;;;;;11.76;83.67;99723.95;1677867;84;21062;-61
2021/05/24 05:04:16;;;;;;;;;;;;;;;11.82;83.81;99744.64;1685544;84;21472;-60
2021/05/24 05:06:43;;;;;;;6.22;3.08;;;;;;;11.82;83.94;99735.91;1677753;84;20161;-61
2021/05/24 05:09:11;;;;;;;5.20;3.42;;;;;;;11.79;84.08;99751.48;1676541;84;21469;-61
2021/05/24 05:11:37;;;;;;;6.85;4.20;;;;;;;11.86;84.13;99751.17;1680900;84;21584;-61
2021/05/24 05:14:05;;;;;;;8.00;4.33;;;;;;;11.88;84.04;99744.88;1653343;86;21085;-60
2021/05/24 05:16:31;;;;;;;6.55;4.17;;;;;;;11.89;84.04;99756.89;1670897;84;21117;-62
2021/05/24 05:20:24;;;;;;;5.77;4.23;;;;;;;12.01;84.11;99751.08;1778936;79;22820;-61
2021/05/24 05:22:51;;;;;;;8.13;5.20;;;;;;;11.93;84.22;99767.52;1730007;82;21670;-63
2021/05/24 05:25:18;;;;;;;7.42;4.45;;;;;;;11.98;84.07;99768.02;1720479;83;21131;-63
2021/05/24 05:27:45;;;;;;;5.62;4.30;;;;;;;11.99;84.10;99769.66;1721904;83;21646;-61
2021/05/24 05:30:13;;;;;;;7.90;4.67;;;;;;;11.98;84.26;99772.11;1722259;83;21104;-62
2021/05/24 05:32:39;;;;;;;5.67;4.33;;;;;;;11.99;84.29;99775.11;1722287;82;21069;-61
2021/05/24 05:35:07;;;;;;;;;;;;;;;11.96;84.33;99781.13;1707677;83;21080;-60
2021/05/24 05:37:34;;;;;;;8.33;3.83;;;;;;;11.97;84.48;99784.14;1692120;83;20504;-61
2021/05/24 05:40:00;;;;;;;7.40;3.98;;;;;;;11.91;84.58;99787.41;1649488;87;21119;-61
2021/05/24 05:42:27;;;;;;;4.70;3.35;;;;;;;11.96;84.72;99797.50;1683551;85;21145;-62
2021/05/24 05:44:54;;;;;;;5.33;3.70;;;;;;;12.01;84.70;99797.46;1683330;85;21070;-61
2021/05/24 05:47:21;;;;;;;9.35;3.60;;;;;;;12.05;84.70;99801.27;1683268;85;21122;-61
2021/05/24 05:49:49;;;;;;;5.37;3.40;;;;;;;12.09;84.53;99804.25;1683433;85;21142;-60
2021/05/24 05:52:17;;;;;;;5.47;3.27;;;;;;;12.12;84.61;99807.78;1683578;85;21134;-60
2021/05/24 05:54:45;;;;;;;6.15;3.30;;;;;;;12.13;84.51;99818.97;1683384;85;21653;-62
2021/05/24 05:57:13;;;;;;;4.78;3.17;;;;;;;12.12;84.52;99821.42;1683628;85;21102;-60
2021/05/24 05:59:39;;;;;;;5.08;3.47;;;;;;;12.16;84.58;99824.69;1682821;84;21070;-61
2021/05/24 06:02:05;;;;;;;5.70;3.42;;;;;;;12.21;84.58;99834.77;1683208;84;21098;-60
2021/05/24 06:04:32;;;;;;;5.08;3.33;;;;;;;12.19;84.58;99830.95;1661602;85;21138;-60
2021/05/24 06:06:58;;;;;;;9.28;3.25;;;;;;;12.23;84.47;99838.03;1683455;83;21085;-60
2021/05/24 06:09:25;;;;;;;5.83;3.33;;;;;;;12.23;84.50;99834.75;1683411;85;21122;-60
2021/05/24 06:11:53;;;;;;;5.15;3.40;;;;;;;12.24;84.50;99839.13;1683112;85;21122;-62
2021/05/24 06:14:21;;;;;;;6.37;3.15;;;;;;;12.30;84.37;99841.27;1683553;85;21086;-61
2021/05/24 06:16:48;;;;;;;4.55;3.08;;;;;;;12.35;84.56;99846.17;1682899;85;21129;-61
2021/05/24 06:19:15;;;;;;;5.50;3.22;;;;;;;12.44;84.52;99845.84;1678291;84;21187;-62
2021/05/24 06:21:41;;;;;;;5.80;3.50;;;;;;;12.50;84.27;99853.47;1698998;84;21746;-62
2021/05/24 06:24:09;;;;;;;3.55;2.52;;;;;;;12.52;84.07;99847.71;1704295;84;21049;-60
2021/05/24 06:26:36;;;;;;;5.40;3.37;;;;;;;12.55;84.23;99852.06;1697798;84;21133;-60
2021/05/24 06:29:04;;;;;;;5.45;3.30;;;;;;;12.63;84.07;99858.30;1636147;88;21092;-60
2021/05/24 06:31:30;;;;;;;4.03;2.77;;;;;;;12.76;84.14;99856.30;1651554;86;21110;-60
2021/05/24 06:33:57;;;;;;;;;;;;;;;12.86;83.46;99873.17;1673056;86;21126;-60
2021/05/24 06:36:23;;;;;;;6.65;2.95;;;;;;;12.94;83.44;99869.30;1674984;84;20171;-59
2021/05/24 06:38:49;;;;;;;3.45;2.37;;;;;;;12.94;82.77;99868.47;1669699;86;21595;-58
2021/05/24 06:41:16;;;;;;;4.08;2.98;;;;;;;12.88;82.30;99877.81;1668180;86;21089;-59
2021/05/24 06:43:43;;;;;;;4.70;2.72;;;;;;;12.89;83.04;99880.83;1654191;86;21092;-61
2021/05/24 06:46:09;;;;;;;;;;;;;;;12.89;82.46;99880.83;1672550;86;21076;-60
2021/05/24 06:48:37;;;;;;;4.70;2.30;;;;;;;12.85;82.39;99887.95;1701061;84;20850;-60
2021/05/24 06:51:04;;;;;;;4.25;2.12;;;;;;;12.88;82.77;99884.64;1707856;84;21037;-61
2021/05/24 06:53:30;;;;;;;4.17;2.30;;;;;;;12.97;81.98;99893.31;1710344;83;21140;-61
2021/05/24 06:55:57;;;;;;;2.90;1.92;;;;;;;13.03;81.61;99891.93;1709154;84;21042;-62
2021/05/24 06:58:24;;;;;;;;;;;;;;;12.99;81.48;99895.78;1699245;84;21109;-60
2021/05/24 07:00:50;;;;;;;3.10;1.75;;;;;;;13.05;81.85;99903.38;1708596;84;20161;-59
2021/05/24 07:03:17;;;;;;;5.00;1.60;;;;;;;13.01;80.62;99910.51;1696036;83;21099;-59
2021/05/24 07:05:43;;;;;;;;;;;;;;;12.94;79.58;99908.91;1696175;85;21159;-59
2021/05/24 07:08:11;;;;;;;2.55;1.40;;;;;;;12.94;79.45;99908.09;1704076;84;20232;-61
2021/05/24 07:10:38;;;;;;;3.25;1.35;;;;;;;12.89;80.35;99926.70;1666170;85;21138;-60
2021/05/24 07:13:04;;;;;;;2.25;1.15;;;;;;;12.89;79.96;99923.17;1665952;86;21114;-62
2021/05/24 07:15:30;;;;;;;3.65;1.37;;;;;;;12.89;79.15;99928.64;1691715;84;21051;-60
2021/05/24 07:17:58;;;;;;;2.40;1.30;;;;;;;12.80;79.82;99924.30;1658476;84;21625;-63
2021/05/24 07:20:25;;;;;;;2.72;1.40;;;;;;;12.80;80.61;99920.20;1665954;85;21094;-61
2021/05/24 07:22:51;;;;;;;1.90;1.27;;;;;;;12.85;79.83;99923.47;1703742;84;21073;-60
2021/05/24 07:25:18;;;;;;;2.70;0.95;;;;;;;12.95;80.73;99922.03;1700502;84;21039;-59
2021/05/24 07:27:44;;;;;;;3.02;1.22;;;;;;;13.01;80.51;99934.55;1681890;85;21625;-60
2021/05/24 07:30:11;;;;;;;;;;;;;;;13.03;79.36;99921.98;1690418;84;21076;-60
2021/05/24 07:32:39;;;;;;;3.45;1.17;;;;;;;13.17;79.55;99921.65;1703865;82;20145;-61
2021/05/24 07:35:07;;;;;;;4.35;1.27;;;;;;;13.23;79.29;99925.42;1692314;84;21092;-61
2021/05/24 07:37:36;;;;;;;2.87;0.90;;;;;;;13.33;79.52;99919.88;1678941;85;21097;-60
2021/05/24 07:40:08;;;;;;;1.90;0.80;;;;;;;13.45;79.36;99920.89;1635695;87;21627;-61
2021/05/24 07:42:35;;;;;;;2.08;0.78;;;;;;;13.60;79.40;99922.69;1670256;86;21107;-60
2021/05/24 07:45:06;;;;;;;1.80;0.82;;;;;;;13.50;76.89;99918.67;1670078;86;21151;-60
2021/05/24 07:47:35;;;;;;;1.92;0.70;;;;;;;13.40;75.95;99927.20;1613934;88;21121;-61
2021/05/24 07:50:05;;;;;;;1.92;0.75;;;;;;;13.31;76.72;99926.20;1633978;86;21109;-59
2021/05/24 07:52:34;;;;;;;1.55;0.50;;;;;;;13.25;76.22;99928.68;1573104;88;21134;-59
2021/05/24 07:55:05;;;;;;;0.82;0.50;;;;;;;13.26;75.54;99926.77;1629181;84;21056;-59
2021/05/24 07:57:33;;;;;;;1.25;0.50;;;;;;;13.29;76.43;99934.39;1643099;84;21457;-60
2021/05/24 08:00:00;;;;;;;1.30;0.50;;;;;;;13.27;75.80;99926.50;1706143;83;21638;-60
2021/05/24 08:02:27;;;;;;;;;;;;;;;13.38;76.13;99933.52;1700650;83;21113;-63
2021/05/24 08:04:54;;;;;;;1.17;0.50;;;;;;;13.43;75.29;99940.30;1693437;84;20171;-60
2021/05/24 08:07:20;;;;;;;2.17;0.62;;;;;;;13.54;76.41;99945.69;1686350;84;21611;-60
2021/05/24 08:09:50;;;;;;;1.67;0.50;;;;;;;13.67;75.88;99954.08;1670212;85;21092;-62
2021/05/24 08:12:17;;;;;;;2.47;0.50;;;;;;;13.77;75.45;99962.73;1674288;85;21603;-61
2021/05/24 08:14:44;;;;;;;1.87;0.50;;;;;;;13.86;73.43;99964.56;1674179;86;21108;-61
2021/05/24 08:17:10;;;;;;;1.47;0.57;;;;;;;13.87;73.23;99967.57;1699419;84;21069;-62
2021/05/24 08:19:38;;;;;;;1.92;0.50;;;;;;;14.09;75.62;99969.01;1697949;83;21069;-61
2021/05/24 08:22:06;;;;;;;1.57;0.55;;;;;;;14.34;75.93;99979.73;1700898;84;21126;-61
2021/05/24 08:24:33;;;;;;;1.50;0.78;;;;;;;14.57;74.18;99975.34;1702913;84;21061;-63
2021/05/24 08:26:59;;;;;;;;;;;;;;;14.61;73.30;99980.50;1682687;84;21120;-62
2021/05/24 08:29:26;;;;;;;3.08;1.40;;;;;;;14.60;73.51;99981.05;1680874;84;20144;-61
2021/05/24 08:31:52;;;;;;;1.92;0.60;;;;;;;14.58;74.52;99996.16;1693987;84;21637;-62
2021/05/24 08:34:18;;;;;;;;;;;;;;;14.56;73.38;99999.76;1707287;84;21005;-61
2021/05/24 08:36:46;;;;;;;1.00;0.60;;;;;;;14.48;71.21;99992.17;1708208;84;20548;-61
2021/05/24 08:39:13;;;;;;;1.40;0.60;;;;;;;14.29;71.72;99997.54;1677172;85;21018;-62
2021/05/24 08:41:39;;;;;;;2.00;0.70;;;;;;;14.33;73.52;100002.16;1679032;85;21074;-63
2021/05/24 08:44:08;;;;;;;3.62;0.68;;;;;;;14.43;73.85;100012.20;1634682;88;21049;-62
2021/05/24 08:46:36;;;;;;;3.00;0.88;;;;;;;14.44;72.74;100012.48;1678898;85;21089;-62
2021/05/24 08:49:04;;;;;;;1.52;0.57;;;;;;;14.40;73.56;100012.80;1634760;87;21009;-62
2021/05/24 08:51:32;;;;;;;1.25;0.50;;;;;;;14.40;72.71;100013.61;1670501;86;21105;-63
2021/05/24 08:53:58;;;;;;;1.55;0.50;;;;;;;14.39;72.29;100015.26;1670484;85;21578;-63
2021/05/24 08:56:25;;;;;;;1.80;0.68;;;;;;;14.49;71.65;100018.47;1641930;86;21210;-64
2021/05/24 08:58:56;;;;;;;1.30;0.50;;;;;;;14.54;72.97;100015.11;1670535;86;21616;-63
2021/05/24 09:01:23;;;;;;;1.75;0.75;;;;;;;14.70;73.25;100026.14;1670184;86;21135;-62
2021/05/24 09:03:59;;;;;;;2.10;0.65;;;;;;;14.93;72.68;100021.77;1669898;85;21110;-64
2021/05/24 09:06:41;;;;;;;1.60;0.60;;;;;;;15.00;70.92;100035.93;1670301;86;21465;-63
2021/05/24 09:09:17;;;;;;;1.55;0.57;;;;;;;14.99;70.24;100025.25;1707798;84;21643;-62
2021/05/24 09:11:46;;;;;;;3.12;0.60;;;;;;;15.04;70.12;100030.67;1677714;84;21632;-62
2021/05/24 09:14:21;;;;;;;1.57;0.60;;;;;;;15.14;70.62;100029.98;1634708;88;21086;-62
2021/05/24 09:17:02;;;;;;;1.75;0.90;;;;;;;15.30;70.16;100034.14;1670310;86;21137;-62
2021/05/24 09:19:31;;;;;;;1.98;0.60;;;;;;;15.37;69.21;100022.83;1696525;84;21453;-63
2021/05/24 09:22:02;;;;;;;2.47;1.10;;;;;;;15.40;67.62;100031.28;1692191;83;21089;-62
2021/05/24 09:24:38;;;;;;;1.75;0.70;;;;;;;15.35;65.93;100025.85;1655991;86;21038;-62
2021/05/24 09:27:29;;;;;;;1.67;0.80;;;;;;;15.43;66.91;100037.54;1692468;83;21128;-64
2021/05/24 09:34:05;;;;;;;6.37;0.93;;;;;;;15.53;66.47;100041.27;1722340;83;21044;-62
2021/05/24 09:36:29;;;;;;;2.42;0.50;;;;;;;15.51;67.98;100047.06;1721282;83;21053;-62
2021/05/24 09:39:05;;;;;;;3.98;1.82;;;;;;;15.57;67.22;100042.31;1703436;83;21188;-63
2021/05/24 09:41:42;;;;;;;2.58;0.90;;;;;;;15.58;66.75;100046.69;1656679;86;21710;-63
2021/05/24 09:44:25;;;;;;;3.85;1.00;;;;;;;15.59;64.58;100053.23;1705533;83;21587;-62
2021/05/24 09:46:51;;;;;;;11.10;9.03;;;;;;;15.57;64.81;100049.98;1683736;83;21088;-64
2021/05/24 09:49:24;;;;;;;11.18;8.28;;;;;;;15.58;61.41;100053.55;1708123;83;21012;-62
2021/05/24 09:51:51;;;;;;;6.58;4.50;;;;;;;15.61;62.73;100055.15;1697051;83;21699;-61
2021/05/24 09:54:18;;;;;;;3.62;2.50;;;;;;;15.69;61.66;100059.16;1656604;86;21037;-61
2021/05/24 09:56:47;;;;;;;16.75;15.10;;;;;;;15.79;61.86;100043.34;1716730;83;21092;-61
2021/05/24 09:59:18;;;;;;;2.02;0.70;;;;;;;16.00;63.14;100046.57;1699308;83;21032;-61
2021/05/24 10:01:54;;;;;;;1.47;0.42;;;;;;;16.31;60.06;100044.92;1699024;83;21128;-62
2021/05/24 10:04:25;;;;;;;1.82;0.50;;;;;;;16.52;59.34;100043.99;1716897;83;20981;-61
2021/05/24 10:06:52;;;;;;;1.85;0.50;;;;;;;16.63;57.90;100040.52;1703234;83;21108;-62
2021/05/24 10:09:19;;;;;;;2.65;0.40;;;;;;;16.50;57.13;100044.87;1692209;85;21021;-62
2021/05/24 10:11:49;;;;;;;1.52;0.40;;;;;;;16.50;59.27;100044.05;1691825;85;21064;-62
2021/05/24 10:14:19;;;;;;;1.98;0.50;;;;;;;16.50;56.59;100050.92;1692062;85;21044;-63
2021/05/24 10:16:50;;;;;;;0.90;0.33;;;;;;;16.46;57.13;100032.84;1691779;83;21069;-63
2021/05/24 10:19:18;;;;;;;2.15;0.60;;;;;;;16.34;54.88;100042.94;1697572;83;21521;-63
2021/05/24 10:21:47;;;;;;;3.20;0.70;;;;;;;16.27;55.43;100038.95;1709860;83;21129;-62
2021/05/24 10:24:14;;;;;;;3.98;0.85;;;;;;;16.28;56.00;100055.15;1708892;84;21520;-64
2021/05/24 10:26:42;;;;;;;3.42;0.60;;;;;;;16.28;55.49;100037.84;1693834;83;21081;-62
2021/05/24 10:29:10;;;;;;;4.20;0.72;;;;;;;16.43;56.08;100039.77;1708928;84;21013;-62
2021/05/24 10:31:38;;;;;;;1.22;0.40;;;;;;;16.64;55.56;100029.80;1706875;84;21116;-63
2021/05/24 10:34:12;;;;;;;3.77;0.53;;;;;;;16.84;54.03;100035.70;1704342;84;21017;-63
2021/05/24 10:36:38;;;;;;;1.02;0.55;;;;;;;17.03;54.30;100034.77;1698720;84;21671;-63
2021/05/24 10:39:20;;;;;;;0.90;0.40;;;;;;;17.20;54.56;100048.16;1695637;84;21005;-62
2021/05/24 10:41:58;;;;;;;1.40;0.53;;;;;;;17.28;51.88;100039.19;1706147;83;21077;-61
2021/05/24 10:44:45;;;;;;;1.15;0.40;;;;;;;17.38;54.00;100049.95;1701454;84;21037;-62
2021/05/24 10:47:25;;;;;;;3.05;0.30;;;;;;;17.50;49.08;100047.23;1703306;84;21090;-63
2021/05/24 10:50:00;;;;;;;0.90;0.30;;;;;;;17.56;48.97;100041.33;1693750;84;21043;-61
2021/05/24 10:52:22;;;;;;;1.47;0.30;;;;;;;17.58;48.90;100041.00;1693286;84;21130;-62
2021/05/24 10:54:48;;;;;;;1.05;0.30;;;;;;;17.53;49.21;100038.36;1695558;84;21564;-61
2021/05/24 10:57:16;;;;;;;1.17;0.40;;;;;;;17.65;49.38;100044.96;1708983;83;21114;-61
2021/05/24 10:59:49;;;;;;;2.02;0.90;;;;;;;17.71;49.17;100040.16;1708567;84;21029;-63
2021/05/24 11:02:30;;;;;;;3.67;0.65;;;;;;;17.83;49.89;100042.61;1709014;82;21093;-62
2021/05/24 11:05:21;;;;;;;2.12;0.55;;;;;;;17.99;49.98;100047.19;1707977;84;21529;-61
2021/05/24 11:07:50;;;;;;;2.67;0.53;;;;;;;18.16;50.39;100041.80;1708866;82;21093;-61
2021/05/24 11:10:19;;;;;;;1.42;0.50;;;;;;;18.24;49.03;100040.22;1671308;85;21021;-61
2021/05/24 11:12:57;;;;;;;2.05;0.30;;;;;;;18.33;48.21;100040.52;1694043;84;21112;-62
2021/05/24 11:15:33;;;;;;;;;;;;;;;18.30;47.43;100041.15;1687021;84;21093;-61
2021/05/24 11:18:05;;;;;;;3.87;0.40;;;;;;;18.27;46.63;100043.16;1679080;85;20147;-62
2021/05/24 11:20:47;;;;;;;2.08;0.40;;;;;;;18.10;45.95;100061.52;1634447;86;21099;-62
2021/05/24 11:26:31;;;;;;;1.05;0.30;;;;;;;18.18;47.66;100049.17;1629634;87;21088;-61
2021/05/24 11:29:17;;;;;;;2.17;0.30;;;;;;;18.08;47.55;100059.07;1708926;84;21026;-62
2021/05/24 11:31:48;;;;;;;2.58;0.40;;;;;;;17.99;48.24;100062.34;1695864;84;21139;-62
2021/05/24 11:34:35;;;;;;;1.10;0.40;;;;;;;17.95;48.13;100053.07;1633188;88;21511;-63
2021/05/24 11:37:07;;;;;;;1.25;0.30;;;;;;;17.93;49.22;100063.56;1674503;86;21104;-62
2021/05/24 11:39:52;;;;;;;2.47;0.42;;;;;;;17.90;49.06;100054.55;1664485;86;21029;-62
2021/05/24 11:42:29;;;;;;;0.95;0.50;;;;;;;17.82;48.52;100060.80;1659736;86;21096;-62
2021/05/24 11:44:58;;;;;;;2.77;0.50;;;;;;;17.73;47.85;100052.48;1650085;86;21061;-62
2021/05/24 11:47:24;;;;;;;1.15;0.40;;;;;;;17.69;47.90;100052.85;1646882;85;21135;-62
2021/05/24 11:50:00;;;;;;;2.87;0.45;;;;;;;17.67;48.56;100063.94;1658858;86;21045;-62
2021/05/24 11:52:29;;;;;;;1.98;0.30;;;;;;;17.80;49.30;100060.31;1683502;84;21089;-62
2021/05/24 11:54:55;;;;;;;1.12;0.40;;;;;;;17.93;46.50;100059.99;1696679;83;21517;-62